Time;durP1;ratioP1;P1;durP2;ratioP2;P2;SDS_P1;SDS_P2;PMS_P1;PMS_P2;Temp;Humidity;BMP_temperature;BMP_pressure;BME280_temperature;BME280_humidity;BME280_pressure;Samples;Min_cycle;Max_cycle;Signal;HPM_P1;HPM_P2
2023/02/20 00:00:01;;;;;;;6.83;1.03;;;;;;;3.41;100.00;101775.72;7395653;19;20408;-44
2023/02/20 00:02:31;;;;;;;7.90;1.77;;;;;;;3.40;100.00;101781.59;7393055;19;20427;-43
2023/02/20 00:05:01;;;;;;;4.27;1.20;;;;;;;3.42;100.00;101770.75;7395155;19;20420;-44
2023/02/20 00:07:32;;;;;;;3.50;0.90;;;;;;;3.38;100.00;101772.16;7391411;19;20443;-44
2023/02/20 00:10:05;;;;;;;4.40;1.20;;;;;;;3.37;100.00;101769.47;7394782;19;20419;-44
2023/02/20 00:12:34;;;;;;;5.53;1.40;;;;;;;3.36;100.00;101750.72;7392987;19;20439;-46
2023/02/20 00:15:05;;;;;;;7.70;1.30;;;;;;;3.34;100.00;101748.78;7391662;19;20446;-44
2023/02/20 00:17:34;;;;;;;2.13;1.20;;;;;;;3.35;100.00;101743.81;7394755;19;20408;-44
2023/02/20 00:20:08;;;;;;;4.87;1.03;;;;;;;3.37;100.00;101741.41;7394830;19;20399;-43
2023/02/20 00:22:37;;;;;;;3.53;1.20;;;;;;;3.37;100.00;101728.63;7393190;19;20427;-46
2023/02/20 00:25:10;;;;;;;4.13;1.73;;;;;;;3.35;100.00;101723.38;7394196;19;20486;-44
2023/02/20 00:27:39;;;;;;;4.47;1.50;;;;;;;3.36;100.00;101724.31;7392864;19;20388;-44
2023/02/20 00:30:12;;;;;;;5.20;1.00;;;;;;;3.34;100.00;101701.19;7397073;19;20407;-44
2023/02/20 00:32:41;;;;;;;3.67;1.70;;;;;;;3.34;100.00;101685.00;7399753;19;20789;-44
2023/02/20 00:35:11;;;;;;;4.30;1.93;;;;;;;3.32;100.00;101677.22;7401576;19;20414;-43
2023/02/20 00:37:40;;;;;;;2.03;0.97;;;;;;;3.30;100.00;101678.75;7401790;19;20450;-45
2023/02/20 00:40:13;;;;;;;5.73;2.13;;;;;;;3.29;100.00;101665.88;7402799;19;20862;-44
2023/02/20 00:42:43;;;;;;;4.00;1.53;;;;;;;3.31;100.00;101655.03;7399276;19;20962;-44
2023/02/20 00:45:13;;;;;;;9.77;2.10;;;;;;;3.32;100.00;101649.16;7402255;19;20415;-44
2023/02/20 00:47:43;;;;;;;7.63;2.10;;;;;;;3.32;100.00;101638.97;7399656;19;20403;-45
2023/02/20 00:50:14;;;;;;;3.10;1.30;;;;;;;3.33;100.00;101625.44;7401041;19;20411;-44
2023/02/20 00:52:43;;;;;;;5.43;1.60;;;;;;;3.35;100.00;101621.34;7398904;19;20986;-43
2023/02/20 00:55:16;;;;;;;2.63;1.10;;;;;;;3.37;100.00;101619.84;7401547;19;20418;-44
2023/02/20 00:57:45;;;;;;;3.90;1.40;;;;;;;3.40;100.00;101613.19;7400234;19;20423;-44
2023/02/20 01:00:25;;;;;;;2.77;1.67;;;;;;;3.38;100.00;101602.84;7401402;19;20416;-45
2023/02/20 01:02:55;;;;;;;8.80;2.80;;;;;;;3.41;100.00;101609.88;7398789;19;20431;-42
2023/02/20 01:05:27;;;;;;;5.77;1.90;;;;;;;3.45;100.00;101617.03;7399520;19;20400;-44
2023/02/20 01:07:57;;;;;;;5.03;1.77;;;;;;;3.49;100.00;101625.06;7399409;19;20407;-44
2023/02/20 01:10:29;;;;;;;8.87;2.10;;;;;;;3.48;100.00;101622.38;7399441;19;20395;-43
2023/02/20 01:12:58;;;;;;;4.13;1.20;;;;;;;3.48;100.00;101617.28;7399038;19;20482;-44
2023/02/20 01:15:28;;;;;;;4.70;1.13;;;;;;;3.52;100.00;101619.34;7399152;19;20426;-44
2023/02/20 01:17:57;;;;;;;6.80;1.23;;;;;;;3.56;100.00;101613.72;7396593;19;20435;-44
2023/02/20 01:20:27;;;;;;;4.97;1.80;;;;;;;3.58;100.00;101609.66;7398992;19;20402;-44
2023/02/20 01:22:56;;;;;;;4.77;2.00;;;;;;;3.61;100.00;101606.47;7398124;19;20442;-45
2023/02/20 01:25:31;;;;;;;6.70;1.83;;;;;;;3.59;100.00;101611.44;7400683;19;20410;-44
2023/02/20 01:28:00;;;;;;;3.13;1.70;;;;;;;3.63;100.00;101598.16;7398268;19;20395;-44
2023/02/20 01:30:30;;;;;;;7.50;2.50;;;;;;;3.70;100.00;101601.22;7399002;19;20412;-45
2023/02/20 01:33:00;;;;;;;5.67;2.23;;;;;;;3.67;100.00;101593.31;7397882;19;20815;-45
2023/02/20 01:35:30;;;;;;;2.03;1.23;;;;;;;3.72;100.00;101589.47;7399392;19;20773;-44
2023/02/20 01:38:05;;;;;;;2.70;1.33;;;;;;;3.71;100.00;101585.16;7400042;19;20418;-44
2023/02/20 01:40:37;;;;;;;3.00;1.57;;;;;;;3.74;100.00;101570.09;7398498;19;20402;-45
2023/02/20 01:43:06;;;;;;;5.57;1.87;;;;;;;3.77;100.00;101571.25;7396751;19;20808;-44
2023/02/20 01:45:38;;;;;;;7.40;1.57;;;;;;;3.75;100.00;101560.00;7394292;19;20407;-43
2023/02/20 01:48:07;;;;;;;4.17;2.10;;;;;;;3.80;100.00;101545.06;7399002;19;20487;-44
2023/02/20 01:50:41;;;;;;;4.90;2.17;;;;;;;3.79;100.00;101548.38;7395841;19;20407;-44
2023/02/20 01:53:13;;;;;;;5.27;2.93;;;;;;;3.81;100.00;101533.19;7397664;19;20798;-44
2023/02/20 01:55:47;;;;;;;8.23;2.23;;;;;;;3.85;100.00;101533.53;7395757;19;20926;-44
2023/02/20 01:58:20;;;;;;;5.57;2.00;;;;;;;3.86;100.00;101521.69;7399860;19;20772;-43
2023/02/20 02:00:50;;;;;;;6.07;1.87;;;;;;;3.90;100.00;101501.63;7398428;19;20930;-44
2023/02/20 02:03:23;;;;;;;4.43;1.73;;;;;;;3.93;100.00;101495.88;7395316;19;20982;-42
2023/02/20 02:05:56;;;;;;;8.60;2.97;;;;;;;3.95;100.00;101491.78;7391607;19;20445;-44
2023/02/20 02:08:25;;;;;;;3.20;1.37;;;;;;;3.96;100.00;101500.34;7396581;19;20400;-45
2023/02/20 02:11:03;;;;;;;4.90;1.57;;;;;;;4.04;100.00;101484.88;7398782;19;20408;-45
2023/02/20 02:13:33;;;;;;;6.03;1.47;;;;;;;4.06;100.00;101492.66;7393397;19;20462;-44
2023/02/20 02:16:08;;;;;;;4.80;1.60;;;;;;;4.10;100.00;101506.56;7398039;19;20410;-43
2023/02/20 02:18:46;;;;;;;6.37;2.40;;;;;;;4.19;100.00;101492.88;7398232;19;20417;-44
2023/02/20 02:22:06;;;;;;;5.67;2.57;;;;;;;4.21;100.00;101507.41;7394234;19;20779;-46
2023/02/20 02:25:14;;;;;;;8.10;2.40;;;;;;;4.24;100.00;101502.53;7391760;19;20834;-43
2023/02/20 02:28:08;;;;;;;12.13;3.13;;;;;;;4.23;100.00;101513.53;7397337;19;20438;-44
2023/02/20 02:30:57;;;;;;;9.93;2.40;;;;;;;4.29;100.00;101506.34;7395209;19;20444;-44
2023/02/20 02:33:57;;;;;;;7.80;3.10;;;;;;;4.29;100.00;101522.59;7394413;19;20444;-44
2023/02/20 02:36:53;;;;;;;3.50;1.83;;;;;;;4.32;100.00;101516.84;7396383;19;20427;-42
2023/02/20 02:39:27;;;;;;;7.63;2.70;;;;;;;4.29;100.00;101531.91;7393930;19;20446;-44
2023/02/20 02:41:59;;;;;;;5.57;2.33;;;;;;;4.27;100.00;101508.81;7397232;19;20404;-44
2023/02/20 02:44:32;;;;;;;5.27;2.77;;;;;;;4.22;100.00;101496.41;7396762;19;20414;-44
2023/02/20 02:47:05;;;;;;;7.53;2.60;;;;;;;4.18;100.00;101478.31;7393990;19;20792;-44
2023/02/20 02:49:39;;;;;;;11.47;3.40;;;;;;;4.11;100.00;101444.50;7396079;19;20411;-45
2023/02/20 02:52:37;;;;;;;9.40;3.37;;;;;;;4.07;100.00;101422.94;7390151;19;20422;-44
2023/02/20 02:55:03;;;;;;;13.50;4.07;;;;;;;3.99;100.00;101394.22;7389955;19;20946;-42
2023/02/20 02:57:33;;;;;;;8.00;3.30;;;;;;;3.97;100.00;101361.69;7396355;19;20411;-45
2023/02/20 03:00:05;;;;;;;6.10;2.97;;;;;;;3.97;100.00;101364.22;7396729;19;20404;-44
2023/02/20 03:02:37;;;;;;;9.03;4.27;;;;;;;3.92;100.00;101352.00;7395731;19;20798;-44
2023/02/20 03:05:08;;;;;;;6.37;3.10;;;;;;;4.00;100.00;101354.28;7395917;19;20463;-43
2023/02/20 03:07:40;;;;;;;8.53;5.00;;;;;;;3.97;100.00;101339.59;7396742;19;20955;-44
2023/02/20 03:10:15;;;;;;;9.10;4.10;;;;;;;3.99;100.00;101321.84;7395876;19;20430;-44
2023/02/20 03:12:47;;;;;;;9.43;4.60;;;;;;;4.01;100.00;101315.19;7388599;19;20450;-44
2023/02/20 03:15:32;;;;;;;8.30;3.57;;;;;;;4.05;100.00;101312.06;7397464;19;20407;-42
2023/02/20 03:18:11;;;;;;;7.30;3.13;;;;;;;4.05;100.00;101301.88;7392023;19;20421;-43
2023/02/20 03:20:45;;;;;;;10.17;4.50;;;;;;;4.07;100.00;101295.22;7396676;19;20415;-42
2023/02/20 03:23:21;;;;;;;9.90;3.97;;;;;;;4.10;100.00;101292.03;7395529;19;20446;-44
2023/02/20 03:25:56;;;;;;;9.50;4.70;;;;;;;4.12;100.00;101277.69;7395437;19;20922;-43
2023/02/20 03:28:28;;;;;;;10.40;4.13;;;;;;;4.11;100.00;101271.69;7395201;19;20399;-44
2023/02/20 03:31:00;;;;;;;11.10;4.77;;;;;;;4.09;100.00;101265.59;7394336;19;20951;-43
2023/02/20 03:44:32;;;;;;;5.53;3.20;;;;;;;4.26;100.00;101231.09;7394765;19;20443;-43
2023/02/20 03:47:03;;;;;;;11.27;4.77;;;;;;;4.31;100.00;101227.22;7395859;19;20412;-46
2023/02/20 03:49:35;;;;;;;9.50;4.70;;;;;;;4.33;100.00;101232.44;7394328;19;20411;-44
2023/02/20 03:52:05;;;;;;;7.50;3.30;;;;;;;4.39;100.00;101255.00;7393739;19;20399;-43
2023/02/20 03:54:38;;;;;;;10.53;5.27;;;;;;;4.39;100.00;101263.56;7393626;19;20411;-44
2023/02/20 03:57:10;;;;;;;7.60;3.73;;;;;;;4.41;100.00;101267.13;7394651;19;20982;-44
2023/02/20 03:59:43;;;;;;;8.57;4.30;;;;;;;4.42;100.00;101263.78;7394498;19;20781;-44
2023/02/20 04:02:16;;;;;;;13.23;4.20;;;;;;;4.45;100.00;101269.13;7389364;19;20485;-46
2023/02/20 04:04:48;;;;;;;13.70;5.20;;;;;;;4.47;100.00;101264.16;7393865;19;20396;-44
2023/02/20 04:07:23;;;;;;;8.63;4.20;;;;;;;4.48;100.00;101265.03;7395326;19;20411;-43
2023/02/20 04:09:57;;;;;;;11.77;5.07;;;;;;;4.51;100.00;101252.50;7393716;19;20407;-43
2023/02/20 04:12:29;;;;;;;11.50;5.07;;;;;;;4.52;100.00;101244.03;7392754;19;20466;-45
2023/02/20 04:14:59;;;;;;;9.17;4.50;;;;;;;4.55;100.00;101249.38;7394400;19;20405;-43
2023/02/20 04:17:32;;;;;;;7.10;3.30;;;;;;;4.55;100.00;101249.38;7393890;19;20395;-45
2023/02/20 04:20:01;;;;;;;7.87;3.63;;;;;;;4.58;100.00;101255.59;7393912;19;20400;-44
2023/02/20 04:22:34;;;;;;;10.17;5.63;;;;;;;4.58;100.00;101247.91;7393056;19;20442;-45
2023/02/20 04:25:12;;;;;;;5.63;2.90;;;;;;;4.57;100.00;101247.84;7389450;19;20420;-44
2023/02/20 04:27:42;;;;;;;6.97;3.80;;;;;;;4.59;100.00;101247.19;7393431;19;20768;-44
2023/02/20 04:30:12;;;;;;;9.77;4.60;;;;;;;4.58;100.00;101252.16;7393926;19;20396;-45
2023/02/20 04:32:43;;;;;;;9.63;4.90;;;;;;;4.60;100.00;101255.72;7392527;19;20423;-44
2023/02/20 04:35:18;;;;;;;12.43;5.23;;;;;;;4.61;100.00;101264.28;7395469;19;20412;-44
2023/02/20 04:37:47;;;;;;;11.97;4.00;;;;;;;4.60;100.00;101263.38;7393728;19;20438;-44
2023/02/20 04:40:22;;;;;;;9.23;3.80;;;;;;;4.65;100.00;101261.16;7394403;19;20411;-44
2023/02/20 04:42:52;;;;;;;10.10;5.10;;;;;;;4.60;100.00;101248.03;7392551;19;20453;-44
2023/02/20 04:45:21;;;;;;;26.83;6.17;;;;;;;4.57;100.00;101237.63;7393691;19;20399;-43
2023/02/20 04:47:51;;;;;;;8.97;5.30;;;;;;;4.58;100.00;101219.81;7393119;19;20404;-43
2023/02/20 04:50:23;;;;;;;11.17;5.27;;;;;;;4.64;100.00;101238.94;7389950;19;20447;-43
2023/02/20 04:52:52;;;;;;;10.37;4.80;;;;;;;4.65;100.00;101246.72;7392889;19;20434;-42
2023/02/20 04:55:25;;;;;;;8.00;4.40;;;;;;;4.65;100.00;101244.16;7389665;19;20430;-44
2023/02/20 04:57:55;;;;;;;8.60;4.70;;;;;;;4.68;100.00;101246.94;7391446;19;20435;-44
2023/02/20 05:00:25;;;;;;;10.40;4.60;;;;;;;4.72;100.00;101248.94;7388118;19;20970;-43
2023/02/20 05:02:55;;;;;;;9.37;5.27;;;;;;;4.76;100.00;101269.63;7392067;19;20470;-43
2023/02/20 05:05:26;;;;;;;16.43;6.90;;;;;;;4.75;100.00;101266.19;7388975;19;20431;-44
2023/02/20 05:07:57;;;;;;;12.33;7.07;;;;;;;4.71;100.00;101267.63;7392506;19;20749;-44
2023/02/20 05:10:30;;;;;;;20.93;6.43;;;;;;;4.75;100.00;101267.84;7388472;19;20453;-44
2023/02/20 05:13:00;;;;;;;10.47;5.47;;;;;;;4.73;100.00;101263.50;7391507;19;20447;-43
2023/02/20 05:15:30;;;;;;;8.97;4.77;;;;;;;4.77;100.00;101256.06;7387286;19;20805;-44
2023/02/20 05:18:00;;;;;;;10.50;5.77;;;;;;;4.80;100.00;101240.94;7398100;19;20403;-42
2023/02/20 05:23:12;;;;;;;10.27;5.57;;;;;;;4.79;100.00;101240.06;7396862;19;20447;-43
2023/02/20 05:25:44;;;;;;;9.83;5.30;;;;;;;4.84;100.00;101235.28;7396501;19;20435;-45
2023/02/20 05:28:13;;;;;;;9.83;4.60;;;;;;;4.86;100.00;101236.28;7399919;19;20451;-44
2023/02/20 05:30:43;;;;;;;19.70;7.30;;;;;;;4.87;100.00;101235.50;7395642;19;20439;-44
2023/02/20 05:33:12;;;;;;;10.80;5.57;;;;;;;4.90;100.00;101233.16;7397742;19;20443;-44
2023/02/20 05:35:42;;;;;;;9.20;5.20;;;;;;;4.95;100.00;101226.72;7396154;19;20439;-44
2023/02/20 05:38:11;;;;;;;12.43;6.87;;;;;;;4.95;100.00;101226.72;7399455;19;20426;-44
2023/02/20 05:40:44;;;;;;;12.00;4.77;;;;;;;4.95;100.00;101221.63;7396424;19;20815;-46
2023/02/20 05:43:13;;;;;;;9.37;4.70;;;;;;;4.98;100.00;101220.94;7397214;19;20435;-44
2023/02/20 05:45:43;;;;;;;12.87;6.83;;;;;;;4.96;100.00;101213.16;7385269;19;20447;-44
2023/02/20 05:48:13;;;;;;;13.03;6.57;;;;;;;4.95;100.00;101198.59;7398226;19;20939;-44
2023/02/20 05:50:43;;;;;;;13.70;7.00;;;;;;;4.93;100.00;101201.81;7392632;19;20434;-44
2023/02/20 05:53:13;;;;;;;23.00;10.53;;;;;;;4.93;100.00;101202.69;7396014;19;20815;-44
2023/02/20 05:55:46;;;;;;;11.90;6.87;;;;;;;4.93;100.00;101189.91;7393312;19;20423;-44
2023/02/20 05:58:15;;;;;;;20.67;7.67;;;;;;;4.93;100.00;101189.91;7397466;19;20407;-44
2023/02/20 06:00:45;;;;;;;11.87;5.63;;;;;;;4.96;100.00;101172.25;7393441;19;20956;-44
2023/02/20 06:03:16;;;;;;;16.87;7.97;;;;;;;4.97;100.00;101183.38;7396601;19;20816;-45
2023/02/20 06:05:46;;;;;;;24.80;7.50;;;;;;;5.00;100.00;101173.34;7394093;19;20446;-44
2023/02/20 06:08:15;;;;;;;17.73;7.50;;;;;;;5.01;100.00;101175.13;7398398;19;20408;-43
2023/02/20 06:10:47;;;;;;;18.90;6.77;;;;;;;4.98;100.00;101178.34;7393914;19;20471;-44
2023/02/20 06:13:17;;;;;;;27.10;4.80;;;;;;;4.99;100.00;101181.81;7396939;19;20463;-45
2023/02/20 06:15:46;;;;;;;25.67;7.67;;;;;;;4.97;100.00;101181.69;7394394;19;20473;-41
2023/02/20 06:18:15;;;;;;;11.57;6.27;;;;;;;5.00;100.00;101181.91;7397090;19;20431;-44
2023/02/20 06:20:45;;;;;;;10.30;4.70;;;;;;;5.02;100.00;101168.34;7394445;19;20411;-44
2023/02/20 06:23:15;;;;;;;15.93;9.10;;;;;;;5.00;100.00;101158.91;7395465;19;21069;-44
2023/02/20 06:25:47;;;;;;;10.13;5.07;;;;;;;4.98;100.00;101170.66;7393838;19;20466;-44
2023/02/20 06:28:16;;;;;;;17.23;7.10;;;;;;;5.00;100.00;101163.13;7396512;19;20407;-44
2023/02/20 06:30:46;;;;;;;18.30;6.30;;;;;;;5.03;100.00;101163.31;7393466;19;20455;-44
2023/02/20 06:33:16;;;;;;;16.80;8.00;;;;;;;5.09;100.00;101173.13;7395389;19;20435;-44
2023/02/20 06:35:45;;;;;;;19.67;9.27;;;;;;;5.08;100.00;101161.97;7394017;19;20446;-44
2023/02/20 06:38:14;;;;;;;14.80;6.73;;;;;;;5.10;100.00;101163.00;7397510;19;20439;-44
2023/02/20 06:40:46;;;;;;;17.83;7.07;;;;;;;5.11;100.00;101162.22;7393397;19;20806;-44
2023/02/20 06:43:16;;;;;;;15.77;7.17;;;;;;;5.14;100.00;101157.28;7395945;19;21005;-44
2023/02/20 06:45:46;;;;;;;12.30;5.07;;;;;;;5.16;100.00;101148.81;7385430;19;20455;-44
2023/02/20 06:48:16;;;;;;;16.80;7.10;;;;;;;5.18;100.00;101162.63;7396208;19;20420;-45
2023/02/20 06:50:45;;;;;;;16.80;8.43;;;;;;;5.18;100.00;101165.19;7393311;19;20467;-44
2023/02/20 06:53:15;;;;;;;15.93;6.93;;;;;;;5.21;100.00;101143.28;7394768;19;20451;-44
2023/02/20 06:55:47;;;;;;;15.80;8.30;;;;;;;5.22;100.00;101146.69;7393463;19;20462;-46
2023/02/20 06:58:16;;;;;;;12.97;6.30;;;;;;;5.24;100.00;101153.69;7396566;19;20415;-44
2023/02/20 07:00:46;;;;;;;16.10;5.73;;;;;;;5.26;100.00;101157.28;7393798;19;20432;-45
2023/02/20 07:03:15;;;;;;;13.37;5.30;;;;;;;5.26;100.00;101152.16;7395384;19;20448;-44
2023/02/20 07:05:45;;;;;;;23.10;11.33;;;;;;;5.33;100.00;101157.72;7393422;19;20446;-44
2023/02/20 07:08:14;;;;;;;14.17;6.90;;;;;;;5.35;100.00;101151.00;7396480;19;20759;-45
2023/02/20 07:10:46;;;;;;;22.80;9.87;;;;;;;5.37;100.00;101141.75;7392850;19;20435;-44
2023/02/20 07:13:16;;;;;;;19.00;8.30;;;;;;;5.37;100.00;101145.22;7394803;19;20444;-44
2023/02/20 07:15:45;;;;;;;14.07;6.60;;;;;;;5.37;100.00;101139.19;7393226;19;20441;-43
2023/02/20 07:18:16;;;;;;;21.07;11.77;;;;;;;5.41;100.00;101136.09;7396296;19;20420;-44
2023/02/20 07:20:45;;;;;;;22.50;11.00;;;;;;;5.40;100.00;101129.19;7393391;19;20437;-44
2023/02/20 07:23:14;;;;;;;21.23;10.77;;;;;;;5.44;100.00;101126.03;7395302;19;20809;-44
2023/02/20 07:25:48;;;;;;;24.77;6.13;;;;;;;5.46;100.00;101114.25;7393545;19;20444;-44
2023/02/20 07:28:18;;;;;;;23.10;12.33;;;;;;;5.47;100.00;101116.03;7397347;19;20411;-44
2023/02/20 07:30:48;;;;;;;20.23;10.90;;;;;;;5.48;100.00;101107.56;7392394;19;20436;-44
2023/02/20 07:33:18;;;;;;;18.23;8.37;;;;;;;5.46;100.00;101091.22;7395458;19;20532;-44
2023/02/20 07:35:48;;;;;;;23.67;10.90;;;;;;;5.52;100.00;101094.19;7392277;19;20440;-43
2023/02/20 07:38:18;;;;;;;28.53;11.70;;;;;;;5.54;100.00;101077.25;7396846;19;20400;-44
2023/02/20 07:40:50;;;;;;;20.27;10.40;;;;;;;5.57;100.00;101068.00;7392446;19;21066;-45
2023/02/20 07:43:19;;;;;;;26.60;10.90;;;;;;;5.58;100.00;101062.13;7393527;19;20448;-46
2023/02/20 07:45:49;;;;;;;28.57;9.40;;;;;;;5.61;100.00;101052.06;7384146;19;20796;-44
2023/02/20 07:48:19;;;;;;;32.23;12.43;;;;;;;5.63;100.00;101037.69;7394134;19;20393;-42
2023/02/20 07:50:49;;;;;;;15.53;7.53;;;;;;;5.62;100.00;101028.25;7392096;19;20786;-44
2023/02/20 07:53:20;;;;;;;16.70;9.60;;;;;;;5.63;100.00;101017.22;7393829;19;20460;-44
2023/02/20 07:55:52;;;;;;;24.00;9.30;;;;;;;5.65;100.00;101018.22;7391842;19;20816;-42
2023/02/20 07:58:21;;;;;;;24.50;9.30;;;;;;;5.64;100.00;100996.84;7394206;19;20414;-43
2023/02/20 08:00:52;;;;;;;24.50;9.27;;;;;;;5.65;100.00;100983.25;7392039;19;20782;-44
2023/02/20 08:03:22;;;;;;;25.63;11.60;;;;;;;5.70;100.00;100975.91;7392123;19;20441;-45
2023/02/20 08:05:51;;;;;;;17.50;9.73;;;;;;;5.68;100.00;100962.09;7391617;19;20428;-45
2023/02/20 08:08:23;;;;;;;20.77;8.93;;;;;;;5.72;100.00;100969.19;7393298;19;20420;-44
2023/02/20 08:10:55;;;;;;;33.50;10.67;;;;;;;5.72;100.00;100951.25;7391963;19;20437;-45
2023/02/20 08:13:36;;;;;;;30.20;15.07;;;;;;;5.75;100.00;100943.75;7392358;19;20472;-44
2023/02/20 08:16:06;;;;;;;24.27;9.17;;;;;;;5.76;100.00;100942.09;7393114;19;20437;-44
2023/02/20 08:18:36;;;;;;;25.27;10.93;;;;;;;5.78;100.00;100925.16;7393803;19;20399;-44
2023/02/20 08:21:06;;;;;;;24.30;9.80;;;;;;;5.79;100.00;100912.47;7393006;19;20462;-44
2023/02/20 08:23:35;;;;;;;25.13;11.43;;;;;;;5.81;100.00;100910.88;7391720;19;20434;-44
2023/02/20 08:26:08;;;;;;;16.77;7.50;;;;;;;5.84;100.00;100873.47;7393629;19;20448;-42
2023/02/20 08:28:37;;;;;;;28.97;10.47;;;;;;;5.88;100.00;100888.22;7393903;19;20425;-44
2023/02/20 08:31:07;;;;;;;29.57;11.90;;;;;;;5.88;100.00;100886.56;7390262;19;20777;-45
2023/02/20 08:33:37;;;;;;;24.30;14.80;;;;;;;5.88;100.00;100868.63;7391410;19;20431;-44
2023/02/20 08:36:07;;;;;;;34.77;9.00;;;;;;;5.92;100.00;100865.47;7393484;19;20465;-44
2023/02/20 08:38:39;;;;;;;19.17;9.00;;;;;;;5.93;100.00;100856.09;7392772;19;20424;-44
2023/02/20 08:41:12;;;;;;;24.07;14.13;;;;;;;5.98;100.00;100870.06;7393901;19;20449;-43
2023/02/20 08:43:42;;;;;;;31.17;13.50;;;;;;;6.03;100.00;100857.59;7388149;19;20448;-44
2023/02/20 08:46:12;;;;;;;30.43;13.33;;;;;;;6.02;100.00;100864.41;7393602;19;20934;-45
2023/02/20 08:48:42;;;;;;;32.97;14.00;;;;;;;6.04;100.00;100860.25;7391384;19;20965;-44
2023/02/20 08:51:12;;;;;;;17.67;8.70;;;;;;;6.03;100.00;100848.22;7393680;19;20410;-43
2023/02/20 08:53:41;;;;;;;25.90;11.70;;;;;;;6.07;100.00;100862.13;7395320;19;20557;-45
2023/02/20 08:56:14;;;;;;;24.80;13.60;;;;;;;6.06;100.00;100848.41;7400273;19;20420;-44
2023/02/20 08:58:43;;;;;;;25.57;11.37;;;;;;;6.08;100.00;100828.91;7398029;19;20415;-44
2023/02/20 09:01:13;;;;;;;22.87;12.37;;;;;;;6.11;100.00;100830.78;7399690;19;20401;-44
2023/02/20 09:03:42;;;;;;;30.97;16.23;;;;;;;6.15;100.00;100816.47;7395645;19;20596;-44
2023/02/20 09:06:12;;;;;;;42.13;14.30;;;;;;;6.17;100.00;100812.31;7400845;19;20787;-43
2023/02/20 09:08:42;;;;;;;41.57;15.47;;;;;;;6.20;100.00;100804.81;7397665;19;20413;-44
2023/02/20 09:11:14;;;;;;;35.23;11.17;;;;;;;6.23;100.00;100789.63;7400159;19;20882;-43
2023/02/20 09:13:45;;;;;;;21.50;9.63;;;;;;;6.26;100.00;100778.69;7396056;19;20454;-44
2023/02/20 09:16:15;;;;;;;21.43;11.93;;;;;;;6.27;100.00;100781.34;7400640;19;20424;-44
2023/02/20 09:18:46;;;;;;;32.10;12.70;;;;;;;6.29;100.00;100758.34;7397570;19;20818;-43
2023/02/20 09:21:17;;;;;;;19.30;10.70;;;;;;;6.31;100.00;100773.03;7399992;19;20406;-43
2023/02/20 09:23:47;;;;;;;22.90;10.07;;;;;;;6.37;100.00;100785.34;7395547;19;20957;-44
2023/02/20 09:26:19;;;;;;;29.27;13.67;;;;;;;6.43;100.00;100746.34;7399761;19;20390;-44
2023/02/20 09:28:48;;;;;;;19.80;9.90;;;;;;;6.39;100.00;100750.41;7397247;19;20482;-44
2023/02/20 09:31:18;;;;;;;16.20;8.17;;;;;;;6.40;100.00;100741.06;7400000;19;20412;-44
2023/02/20 09:33:48;;;;;;;25.93;11.77;;;;;;;6.45;100.00;100739.63;7394735;19;20433;-44
2023/02/20 09:36:20;;;;;;;17.87;7.17;;;;;;;6.40;100.00;100747.06;7397860;19;20447;-43
2023/02/20 09:38:49;;;;;;;15.43;8.17;;;;;;;6.41;100.00;100737.72;7396948;19;20446;-41
2023/02/20 09:41:31;;;;;;;29.60;12.73;;;;;;;6.42;100.00;100729.22;7399272;19;20407;-44
2023/02/20 09:44:08;;;;;;;20.33;7.10;;;;;;;6.45;100.00;100711.44;7393674;19;20409;-44
2023/02/20 09:46:37;;;;;;;21.07;9.43;;;;;;;6.49;100.00;100721.09;7399712;19;20421;-44
2023/02/20 09:49:12;;;;;;;33.40;14.70;;;;;;;6.52;100.00;100708.47;7393543;19;20942;-44
2023/02/20 09:51:45;;;;;;;23.67;9.23;;;;;;;6.54;100.00;100706.84;7398824;19;20402;-44
2023/02/20 09:54:18;;;;;;;38.27;14.20;;;;;;;6.59;100.00;100719.94;7395016;19;20476;-45
2023/02/20 09:56:52;;;;;;;20.17;8.03;;;;;;;6.65;100.00;100709.16;7398553;19;20413;-44
2023/02/20 09:59:24;;;;;;;25.33;10.90;;;;;;;6.70;100.00;100715.41;7395663;19;20458;-44
2023/02/20 10:01:55;;;;;;;27.07;10.30;;;;;;;6.71;100.00;100709.47;7397754;19;20413;-44
2023/02/20 10:04:27;;;;;;;22.00;10.27;;;;;;;6.72;100.00;100711.28;7391616;19;20597;-44
2023/02/20 10:07:02;;;;;;;22.70;10.57;;;;;;;6.76;100.00;100731.13;7398354;19;20430;-44
2023/02/20 10:09:31;;;;;;;28.13;12.37;;;;;;;6.84;100.00;100740.19;7394922;19;20433;-43
2023/02/20 10:12:10;;;;;;;22.00;10.90;;;;;;;6.86;100.00;100738.56;7398404;19;20391;-45
2023/02/20 10:14:56;;;;;;;20.10;8.97;;;;;;;6.89;100.00;100738.72;7393966;19;20451;-49
2023/02/20 10:17:33;;;;;;;13.80;6.50;;;;;;;6.93;100.00;100752.63;7397261;19;20391;-45
2023/02/20 10:20:09;;;;;;;23.60;12.20;;;;;;;6.95;100.00;100752.69;7395692;19;20433;-45
2023/02/20 10:22:43;;;;;;;24.30;8.97;;;;;;;6.97;100.00;100753.69;7396640;19;20471;-44
2023/02/20 10:25:17;;;;;;;24.73;11.30;;;;;;;7.00;100.00;100756.41;7394480;19;20448;-45
2023/02/20 10:28:05;;;;;;;21.00;9.47;;;;;;;7.06;100.00;100751.63;7397791;19;20399;-44
2023/02/20 10:30:39;;;;;;;15.87;6.43;;;;;;;7.07;100.00;100747.41;7392833;19;20423;-42
2023/02/20 10:33:18;;;;;;;22.33;10.93;;;;;;;7.11;100.00;100747.66;7397044;19;20452;-44
2023/02/20 10:35:53;;;;;;;27.13;9.40;;;;;;;7.12;100.00;100764.81;7395242;19;20431;-44
2023/02/20 10:38:26;;;;;;;12.43;6.90;;;;;;;7.14;100.00;100755.50;7397214;19;20763;-43
2023/02/20 10:41:00;;;;;;;32.33;8.10;;;;;;;7.16;100.00;100758.16;7393715;19;20425;-43
2023/02/20 10:43:36;;;;;;;25.03;7.90;;;;;;;7.25;100.00;100739.81;7396382;19;20466;-45
2023/02/20 10:46:11;;;;;;;21.90;8.13;;;;;;;7.28;100.00;100768.25;7397114;19;20442;-44
2023/02/20 10:48:44;;;;;;;11.07;5.30;;;;;;;7.31;100.00;100758.13;7394738;19;20409;-43
2023/02/20 10:51:17;;;;;;;18.77;7.73;;;;;;;7.33;100.00;100774.47;7396416;19;20411;-44
2023/02/20 10:53:51;;;;;;;19.13;7.60;;;;;;;7.36;100.00;100776.34;7393058;19;20440;-44
2023/02/20 10:56:22;;;;;;;16.77;7.80;;;;;;;7.39;100.00;100772.25;7396121;19;21074;-43
2023/02/20 10:59:00;;;;;;;16.17;6.10;;;;;;;7.44;100.00;100782.81;7394819;19;20425;-44
2023/02/20 11:01:31;;;;;;;16.80;5.63;;;;;;;7.45;100.00;100801.63;7394540;19;20420;-45
2023/02/20 11:04:04;;;;;;;10.80;4.83;;;;;;;7.47;100.00;100805.16;7392435;19;20486;-41
2023/02/20 11:06:36;;;;;;;14.17;6.03;;;;;;;7.49;100.00;100824.13;7396998;19;20427;-44
2023/02/20 11:09:09;;;;;;;11.90;4.40;;;;;;;7.48;100.00;100824.94;7393697;19;20394;-44
2023/02/20 11:11:42;;;;;;;27.83;5.90;;;;;;;7.50;100.00;100820.75;7396030;19;20403;-45
2023/02/20 11:14:16;;;;;;;14.13;5.70;;;;;;;7.48;100.00;100819.78;7389370;19;20431;-45
2023/02/20 11:16:53;;;;;;;11.00;5.97;;;;;;;7.51;100.00;100812.25;7396905;19;20407;-44
2023/02/20 11:19:25;;;;;;;12.30;6.33;;;;;;;7.52;100.00;100825.19;7392597;19;20437;-44
2023/02/20 11:21:55;;;;;;;11.50;5.83;;;;;;;7.54;100.00;100820.13;7396068;19;20400;-44
2023/02/20 11:24:32;;;;;;;13.63;5.03;;;;;;;7.56;100.00;100836.50;7390782;19;20435;-44
2023/02/20 11:27:11;;;;;;;12.13;5.50;;;;;;;7.59;100.00;100828.94;7396317;19;20411;-44
2023/02/20 11:29:50;;;;;;;16.57;5.00;;;;;;;7.63;100.00;100830.91;7391833;19;20442;-43
2023/02/20 11:32:26;;;;;;;11.27;4.63;;;;;;;7.68;100.00;100832.03;7395342;19;20781;-44
2023/02/20 11:35:17;;;;;;;12.07;4.87;;;;;;;7.70;100.00;100815.00;7390892;19;20435;-44
2023/02/20 11:37:46;;;;;;;18.93;5.50;;;;;;;7.78;100.00;100828.28;7391703;19;20424;-44
2023/02/20 11:40:28;;;;;;;7.23;2.13;;;;;;;7.75;100.00;100847.78;7382581;19;20443;-43
2023/02/20 11:42:58;;;;;;;19.90;5.30;;;;;;;7.76;100.00;100826.44;7394286;19;20783;-42
2023/02/20 11:45:31;;;;;;;6.67;3.80;;;;;;;7.80;100.00;100851.50;7390575;19;20427;-44
2023/02/20 11:48:11;;;;;;;14.90;4.30;;;;;;;7.81;100.00;100837.84;7396118;19;20426;-44
2023/02/20 11:50:45;;;;;;;14.70;4.97;;;;;;;7.87;100.00;100848.44;7393045;19;20434;-45
2023/02/20 11:53:21;;;;;;;13.90;3.93;;;;;;;7.90;100.00;100847.72;7394872;19;20439;-48
2023/02/20 11:55:52;;;;;;;9.37;3.80;;;;;;;7.91;100.00;100828.94;7389462;19;20435;-44